Strona główna
METAR-TAF:

METAR-TAF

Lotnisko :

Hamilton, Ohio, Stany Zjednoczone

Szerokość geograficzna: 39-21-41N, Długość geograficzna: 084-31-15W, wysokość: 193 m

Aktualna obserwacja pogody

Raport powstał 25 minut temu, godzina 17:53 UTC
Wiatr 5 kt z kierunków zmiennych
Temperatura 33°C
Wilgotność 46%
Ciśnienie 1020 hPa
Widzialność: 16.1 km
Mało chmury na wysokości 7000 ft
Mało chmury na wysokości 11000 ft

METAR: KHAO 151753Z AUTO VRB05KT 10SM FEW070 FEW110 33/20 A3011 RMK AO2 SLP190 T03330200 10333 20233 58010

czas: 14:18 (18:18 UTC)


TAF: brakujący

Obserwacja i prognoza pogody dla ponad 4000 lotnisk (raport METAR i TAF).

Dostępne stacje oznaczono żółtymi i czerwonymi punktami na mapie.

Najedź kursorem aby zobaczyć nazwę stacji.

Kliknij aby zobaczyć obserwacje i prognozy pogody.

Aby zmienić mapę: kliknij na zielony przycisk z czarnym krzyżykiem, aby powiększyć; na zielony przycisk z myślnikiem, aby pomniejszyć; na zielone strzałki, aby przejść do map sąsiednich.


METAR-TAF: